createdAt,value
2022-12-09T00:01:49.885Z,87.37
2022-12-09T00:04:18.520Z,86.37
2022-12-09T00:06:46.847Z,88.60
2022-12-09T00:09:16.214Z,89.63
2022-12-09T00:11:45.380Z,84.87
2022-12-09T00:14:13.561Z,86.23
2022-12-09T00:16:41.830Z,88.90
2022-12-09T00:19:11.395Z,89.53
2022-12-09T00:21:39.547Z,90.87
2022-12-09T00:24:10.612Z,89.43
2022-12-09T00:26:38.977Z,92.63
2022-12-09T00:29:07.456Z,89.63
2022-12-09T00:31:38.483Z,92.73
2022-12-09T00:34:09.634Z,91.50
2022-12-09T00:36:39.450Z,86.30
2022-12-09T00:39:07.553Z,89.83
2022-12-09T00:41:35.764Z,87.83
2022-12-09T00:44:04.231Z,86.87
2022-12-09T00:46:32.541Z,88.03
2022-12-09T00:49:00.776Z,87.93
2022-12-09T00:51:29.018Z,86.57
2022-12-09T00:53:58.918Z,88.60
2022-12-09T00:56:29.325Z,88.90
2022-12-09T00:58:58.137Z,90.30
2022-12-09T01:01:26.827Z,89.97
2022-12-09T01:03:55.435Z,88.10
2022-12-09T01:06:25.579Z,89.97
2022-12-09T01:08:54.774Z,88.73
2022-12-09T01:11:26.640Z,93.50
2022-12-09T01:13:57.710Z,89.33
2022-12-09T01:16:28.988Z,90.43
2022-12-09T01:18:59.852Z,87.23
2022-12-09T01:21:28.724Z,85.07
2022-12-09T01:23:56.977Z,86.37
2022-12-09T01:26:26.788Z,84.47
2022-12-09T01:28:57.507Z,85.30
2022-12-09T01:31:26.603Z,86.37
2022-12-09T01:33:56.222Z,86.13
2022-12-09T01:36:26.179Z,87.27
2022-12-09T01:38:54.999Z,82.73
2022-12-09T01:41:24.105Z,87.03
2022-12-09T01:44:10.457Z,84.97
2022-12-09T01:46:39.014Z,84.90
2022-12-09T01:49:09.382Z,84.00
2022-12-09T01:51:39.171Z,83.57
2022-12-09T01:54:08.006Z,82.13
2022-12-09T01:56:37.791Z,82.37
2022-12-09T01:59:10.689Z,86.10
2022-12-09T02:01:40.422Z,85.70
2022-12-09T02:04:09.148Z,85.97
2022-12-09T02:06:38.587Z,86.60
2022-12-09T02:09:07.539Z,85.13
2022-12-09T02:11:47.647Z,90.20
2022-12-09T02:14:22.527Z,86.50
2022-12-09T02:16:59.916Z,86.10
2022-12-09T02:19:46.351Z,84.80
2022-12-09T02:22:22.368Z,83.53
2022-12-09T02:24:56.282Z,84.50
2022-12-09T02:27:30.584Z,84.17
2022-12-09T02:30:12.679Z,86.07
2022-12-09T02:33:03.577Z,84.30
2022-12-09T02:35:38.579Z,85.37
2022-12-09T02:38:11.789Z,88.87
2022-12-09T02:40:47.482Z,84.70
2022-12-09T02:43:18.978Z,84.37
2022-12-09T02:45:48.231Z,85.90
2022-12-09T02:48:19.826Z,87.33
2022-12-09T02:50:52.695Z,83.60
2022-12-09T02:53:22.996Z,83.83
2022-12-09T02:55:54.472Z,83.07
2022-12-09T02:58:22.638Z,82.73
2022-12-09T03:00:52.465Z,83.33
2022-12-09T03:03:20.808Z,83.33
2022-12-09T03:05:57.650Z,83.73
2022-12-09T03:08:36.346Z,85.10
2022-12-09T03:11:07.638Z,84.53
2022-12-09T03:13:47.625Z,82.97
2022-12-09T03:16:22.943Z,84.10
2022-12-09T03:18:56.865Z,82.90
2022-12-09T03:21:29.457Z,81.90
2022-12-09T03:23:59.588Z,83.00
2022-12-09T03:26:31.020Z,82.23
2022-12-09T03:29:02.421Z,82.37
2022-12-09T03:31:32.571Z,80.70
2022-12-09T03:34:05.239Z,85.00
2022-12-09T03:36:38.562Z,81.93
2022-12-09T03:39:10.414Z,84.33
2022-12-09T03:41:42.854Z,84.53
2022-12-09T03:44:17.919Z,83.57
2022-12-09T03:46:46.950Z,85.77
2022-12-09T03:49:16.648Z,82.83
2022-12-09T03:51:51.011Z,82.40
2022-12-09T03:54:24.607Z,86.40
2022-12-09T03:56:56.920Z,83.50
2022-12-09T03:59:30.000Z,84.40
2022-12-09T04:01:59.011Z,85.03
2022-12-09T04:04:28.691Z,85.77
2022-12-09T04:06:58.728Z,83.77
2022-12-09T04:09:27.214Z,82.20
2022-12-09T04:11:55.487Z,82.27
2022-12-09T04:14:23.764Z,82.87
2022-12-09T04:16:52.324Z,81.33
2022-12-09T04:19:20.469Z,83.20
2022-12-09T04:21:48.868Z,79.77
2022-12-09T04:24:18.417Z,81.47
2022-12-09T04:26:46.834Z,79.00
2022-12-09T04:29:15.997Z,79.30
2022-12-09T04:31:44.659Z,84.47
2022-12-09T04:34:12.869Z,84.60
2022-12-09T04:36:41.130Z,86.10
2022-12-09T04:39:09.369Z,82.97
2022-12-09T04:41:38.979Z,83.47
2022-12-09T04:44:07.806Z,81.27
2022-12-09T04:46:36.116Z,81.43
2022-12-09T04:49:05.296Z,85.20
2022-12-09T04:51:39.463Z,82.97
2022-12-09T04:54:09.089Z,82.50
2022-12-09T04:56:38.654Z,84.60
2022-12-09T04:59:07.322Z,84.33
2022-12-09T05:01:36.386Z,80.67
2022-12-09T05:04:05.449Z,82.97
2022-12-09T05:06:34.443Z,79.73
2022-12-09T05:09:03.533Z,77.80
2022-12-09T05:11:32.194Z,75.17
2022-12-09T05:14:01.912Z,77.40
2022-12-09T05:16:30.406Z,78.70
2022-12-09T05:19:01.593Z,83.57
2022-12-09T05:21:30.090Z,78.27
2022-12-09T05:23:58.414Z,79.83
2022-12-09T05:26:27.148Z,82.23
2022-12-09T05:28:55.474Z,80.20
2022-12-09T05:31:25.343Z,81.50
2022-12-09T05:33:54.234Z,82.37
2022-12-09T05:36:25.200Z,81.93
2022-12-09T05:38:54.162Z,79.97
2022-12-09T05:41:24.420Z,79.13
2022-12-09T05:43:53.505Z,77.77
2022-12-09T05:46:22.757Z,79.73
2022-12-09T05:48:53.134Z,79.17
2022-12-09T05:51:24.659Z,77.30
2022-12-09T05:53:53.939Z,78.13
2022-12-09T05:56:24.222Z,80.53
2022-12-09T05:58:53.516Z,82.70
2022-12-09T06:01:22.124Z,82.00
2022-12-09T06:03:53.117Z,80.43
2022-12-09T06:06:24.007Z,79.50
2022-12-09T06:08:56.346Z,78.10
2022-12-09T06:11:25.845Z,78.33
2022-12-09T06:13:54.778Z,79.57
2022-12-09T06:16:24.394Z,79.70
2022-12-09T06:18:54.641Z,78.60
2022-12-09T06:21:23.691Z,77.00
2022-12-09T06:23:52.868Z,79.97
2022-12-09T06:26:24.560Z,77.63
2022-12-09T06:28:53.692Z,79.67
2022-12-09T06:31:23.028Z,78.17
2022-12-09T06:33:56.438Z,79.13
2022-12-09T06:36:29.153Z,82.10
2022-12-09T06:39:04.541Z,86.55
2022-12-09T06:41:36.019Z,81.03
2022-12-09T06:44:05.683Z,77.83
2022-12-09T06:46:33.900Z,77.37
2022-12-09T06:49:02.555Z,77.27
2022-12-09T06:51:32.570Z,76.80
2022-12-09T06:54:00.989Z,76.93
2022-12-09T06:56:29.531Z,80.27
2022-12-09T06:58:58.141Z,79.87
2022-12-09T07:01:27.057Z,78.33
2022-12-09T07:03:58.349Z,82.22
2022-12-09T07:06:29.903Z,78.33
2022-12-09T07:09:02.126Z,79.20
2022-12-09T07:11:31.246Z,76.33
2022-12-09T07:14:00.537Z,79.87
2022-12-09T07:16:29.564Z,80.20
2022-12-09T07:18:58.769Z,83.20
2022-12-09T07:21:28.372Z,82.47
2022-12-09T07:23:59.469Z,82.60
2022-12-09T07:26:32.719Z,82.87
2022-12-09T07:29:04.041Z,86.97
2022-12-09T07:31:33.483Z,94.60
2022-12-09T07:34:02.094Z,90.43
2022-12-09T07:36:32.927Z,83.70
2022-12-09T07:39:03.247Z,86.97
2022-12-09T07:41:33.226Z,85.70
2022-12-09T07:44:01.942Z,81.00
2022-12-09T07:46:30.328Z,83.77
2022-12-09T07:48:59.383Z,91.18
2022-12-09T07:51:29.612Z,83.97
2022-12-09T07:53:58.703Z,81.90
2022-12-09T07:56:28.388Z,81.47
2022-12-09T07:58:58.778Z,85.10
2022-12-09T08:01:29.394Z,82.60
2022-12-09T08:03:58.230Z,82.50
2022-12-09T08:06:28.715Z,83.83
2022-12-09T08:08:59.661Z,85.10
2022-12-09T08:11:30.215Z,85.10
2022-12-09T08:14:07.217Z,82.03
2022-12-09T08:16:39.228Z,86.60
2022-12-09T08:19:07.969Z,87.63
2022-12-09T08:21:36.845Z,91.17
2022-12-09T08:24:07.755Z,87.67
2022-12-09T08:26:37.622Z,90.43
2022-12-09T08:29:10.482Z,89.23
2022-12-09T08:31:41.847Z,89.80
2022-12-09T08:34:11.101Z,90.80
2022-12-09T08:36:40.070Z,90.93
2022-12-09T08:39:09.231Z,93.83
2022-12-09T08:41:39.433Z,91.93
2022-12-09T08:44:12.269Z,88.20
2022-12-09T08:46:44.626Z,91.23
2022-12-09T08:49:14.547Z,88.03
2022-12-09T08:51:43.427Z,92.10
2022-12-09T08:54:12.085Z,89.63
2022-12-09T08:56:40.851Z,84.13
2022-12-09T08:59:10.442Z,88.27
2022-12-09T09:01:39.093Z,90.80
2022-12-09T09:04:09.809Z,85.57
2022-12-09T09:06:39.964Z,98.30
2022-12-09T09:09:11.013Z,91.93
2022-12-09T09:11:40.604Z,90.60
2022-12-09T09:14:12.463Z,92.37
2022-12-09T09:16:42.191Z,98.93
2022-12-09T09:19:16.617Z,99.10
2022-12-09T09:21:45.118Z,103.83
2022-12-09T09:24:16.080Z,98.90
2022-12-09T09:26:44.978Z,106.33
2022-12-09T09:29:16.749Z,105.80
2022-12-09T09:31:48.659Z,104.17
2022-12-09T09:34:20.027Z,91.20
2022-12-09T09:36:49.109Z,101.70
2022-12-09T09:39:17.480Z,101.43
2022-12-09T09:41:51.782Z,102.40
2022-12-09T09:44:33.834Z,96.13
2022-12-09T09:47:06.491Z,101.73
2022-12-09T09:49:38.398Z,107.03
2022-12-09T09:52:10.292Z,108.13
2022-12-09T09:54:39.388Z,100.73
2022-12-09T09:57:15.688Z,102.03
2022-12-09T10:00:04.989Z,98.13
2022-12-09T10:02:54.896Z,101.17
2022-12-09T10:05:26.675Z,105.00
2022-12-09T10:07:59.683Z,92.60
2022-12-09T10:10:40.292Z,97.43
2022-12-09T10:13:21.792Z,93.90
2022-12-09T10:16:02.527Z,100.00
2022-12-09T10:18:37.933Z,89.03
2022-12-09T10:21:16.519Z,86.97
2022-12-09T10:23:46.931Z,82.90
2022-12-09T10:26:20.318Z,85.57
2022-12-09T10:28:54.174Z,87.90
2022-12-09T10:31:25.220Z,91.13
2022-12-09T10:33:53.530Z,89.50
2022-12-09T10:36:29.405Z,85.93
2022-12-09T10:39:02.365Z,88.30
2022-12-09T10:42:00.734Z,91.57
2022-12-09T10:44:29.698Z,88.50
2022-12-09T10:47:02.316Z,83.67
2022-12-09T10:49:31.615Z,87.20
2022-12-09T10:52:00.849Z,91.83
2022-12-09T10:54:35.954Z,88.83
2022-12-09T10:57:24.186Z,89.37
2022-12-09T11:00:01.380Z,84.43
2022-12-09T11:02:33.699Z,87.40
2022-12-09T11:05:33.944Z,86.33
2022-12-09T11:08:02.900Z,89.53
2022-12-09T11:10:33.286Z,86.70
2022-12-09T11:13:05.455Z,92.17
2022-12-09T11:15:39.091Z,89.23
2022-12-09T11:18:20.233Z,88.33
2022-12-09T11:20:56.982Z,85.37
2022-12-09T11:23:26.363Z,83.70
2022-12-09T11:25:58.648Z,80.60
2022-12-09T11:28:30.339Z,78.70
2022-12-09T11:33:54.589Z,71.20
2022-12-09T11:36:30.663Z,67.97
2022-12-09T11:39:15.816Z,65.03
2022-12-09T11:42:06.222Z,58.83
2022-12-09T11:44:37.612Z,59.70
2022-12-09T11:47:10.025Z,57.47
2022-12-09T11:49:47.666Z,53.73
2022-12-09T11:52:30.825Z,46.53
2022-12-09T11:55:14.439Z,42.97
2022-12-09T11:57:48.478Z,41.10
2022-12-09T12:00:23.072Z,37.37
2022-12-09T12:02:59.177Z,33.13
2022-12-09T12:05:34.315Z,33.17
2022-12-09T12:08:13.145Z,27.87
2022-12-09T12:10:45.360Z,25.47
2022-12-09T12:13:20.089Z,25.20
2022-12-09T12:15:53.304Z,25.60
2022-12-09T12:18:23.349Z,23.23
2022-12-09T12:21:08.420Z,22.20
2022-12-09T12:24:02.879Z,22.13
2022-12-09T12:26:40.203Z,21.93
2022-12-09T12:29:26.345Z,20.73
2022-12-09T12:32:08.660Z,23.00
2022-12-09T12:34:43.646Z,19.63
2022-12-09T12:37:27.865Z,19.73
2022-12-09T12:40:08.758Z,19.10
2022-12-09T12:43:06.436Z,18.80
2022-12-09T12:46:02.750Z,18.30
2022-12-09T12:48:40.148Z,19.43
2022-12-09T12:51:20.881Z,17.70
2022-12-09T12:53:57.527Z,18.07
2022-12-09T12:56:31.428Z,18.37
2022-12-09T12:59:09.127Z,17.70
2022-12-09T13:01:52.812Z,17.30
2022-12-09T13:04:25.413Z,18.53
2022-12-09T13:07:06.965Z,18.80
2022-12-09T13:09:43.560Z,16.97
2022-12-09T13:12:17.013Z,19.00
2022-12-09T13:14:53.078Z,17.53
2022-12-09T13:17:24.259Z,17.60
2022-12-09T13:19:56.204Z,16.93
2022-12-09T13:22:31.063Z,17.60
2022-12-09T13:25:12.379Z,17.13
2022-12-09T13:27:45.942Z,18.07
2022-12-09T13:30:18.946Z,20.23
2022-12-09T13:33:02.618Z,19.30
2022-12-09T13:35:36.842Z,18.30
2022-12-09T13:38:05.329Z,18.40
2022-12-09T13:40:37.707Z,19.77
2022-12-09T13:43:11.510Z,20.87
2022-12-09T13:45:51.662Z,19.60
2022-12-09T13:48:45.884Z,20.77
2022-12-09T13:51:14.643Z,19.57
2022-12-09T13:53:54.854Z,19.70
2022-12-09T13:56:31.243Z,19.83
2022-12-09T13:59:36.532Z,19.20
2022-12-09T14:02:15.132Z,20.07
2022-12-09T14:04:51.554Z,19.67
2022-12-09T14:07:27.837Z,19.50
2022-12-09T14:09:58.766Z,20.90
2022-12-09T14:13:04.170Z,20.43
2022-12-09T14:15:40.619Z,20.07
2022-12-09T14:18:32.936Z,20.13
2022-12-09T14:21:24.520Z,19.80
2022-12-09T14:24:41.384Z,20.17
2022-12-09T14:27:20.956Z,20.40
2022-12-09T14:29:55.011Z,22.00
2022-12-09T14:32:32.964Z,22.23
2022-12-09T14:35:08.029Z,22.43
2022-12-09T14:38:12.348Z,22.10
2022-12-09T14:41:06.044Z,23.03
2022-12-09T14:43:50.671Z,23.07
2022-12-09T14:46:28.328Z,24.10
2022-12-09T14:49:01.704Z,26.13
2022-12-09T14:51:38.560Z,27.23
2022-12-09T14:54:13.900Z,27.80
2022-12-09T14:56:47.714Z,29.13
2022-12-09T14:59:20.755Z,30.33
2022-12-09T15:01:53.955Z,30.13
2022-12-09T15:04:27.077Z,32.07
2022-12-09T15:07:13.212Z,34.20
2022-12-09T15:09:50.498Z,34.40
2022-12-09T15:12:20.839Z,35.93
2022-12-09T15:14:53.911Z,38.60
2022-12-09T15:17:28.039Z,39.50
2022-12-09T15:20:00.622Z,38.73
2022-12-09T15:22:32.404Z,41.47
2022-12-09T15:25:02.421Z,42.87
2022-12-09T15:27:31.560Z,44.20
2022-12-09T15:29:59.706Z,48.77
2022-12-09T15:32:31.382Z,50.10
2022-12-09T15:35:20.927Z,52.70
2022-12-09T15:37:53.380Z,53.70
2022-12-09T15:40:23.010Z,56.60
2022-12-09T15:42:55.200Z,57.10
2022-12-09T15:45:26.786Z,58.83
2022-12-09T15:47:58.311Z,60.80
2022-12-09T15:50:31.642Z,61.30
2022-12-09T15:53:08.774Z,60.30
2022-12-09T15:55:41.278Z,64.93
2022-12-09T15:58:13.051Z,62.37
2022-12-09T16:00:43.267Z,63.47
2022-12-09T16:03:11.671Z,62.93
2022-12-09T16:05:42.208Z,60.73
2022-12-09T16:08:11.413Z,61.10
2022-12-09T16:10:47.341Z,60.20
2022-12-09T16:13:17.502Z,60.53
2022-12-09T16:15:51.433Z,62.20
2022-12-09T16:18:23.795Z,62.20
2022-12-09T16:21:03.815Z,61.40
2022-12-09T16:23:32.143Z,61.40
2022-12-09T16:26:07.227Z,60.70
2022-12-09T16:28:36.512Z,61.47
2022-12-09T16:31:17.566Z,63.47
2022-12-09T16:33:49.271Z,61.37
2022-12-09T16:36:21.264Z,60.13
2022-12-09T16:39:33.395Z,58.40
2022-12-09T16:42:03.241Z,58.17
2022-12-09T16:44:35.261Z,58.00
2022-12-09T16:47:15.060Z,55.67
2022-12-09T16:49:47.980Z,55.17
2022-12-09T16:52:21.240Z,56.27
2022-12-09T16:54:50.942Z,55.47
2022-12-09T16:57:21.482Z,55.20
2022-12-09T16:59:50.965Z,56.93
2022-12-09T17:02:25.149Z,54.03
2022-12-09T17:04:53.797Z,57.27
2022-12-09T17:07:23.381Z,57.70
2022-12-09T17:09:51.550Z,58.97
2022-12-09T17:12:19.718Z,58.40
2022-12-09T17:14:47.911Z,59.37
2022-12-09T17:17:16.053Z,57.93
2022-12-09T17:19:44.463Z,55.47
2022-12-09T17:22:13.119Z,55.43
2022-12-09T17:24:42.779Z,55.07
2022-12-09T17:27:10.900Z,54.43
2022-12-09T17:29:39.124Z,54.53
2022-12-09T17:32:07.517Z,54.03
2022-12-09T17:34:35.712Z,54.30
2022-12-09T17:37:04.143Z,54.93
2022-12-09T17:39:32.400Z,54.43
2022-12-09T17:42:02.012Z,55.50
2022-12-09T17:44:30.341Z,55.40
2022-12-09T17:46:58.684Z,57.00
2022-12-09T17:49:26.841Z,59.00
2022-12-09T17:51:55.017Z,55.13
2022-12-09T17:54:23.268Z,55.47
2022-12-09T17:56:51.359Z,54.30
2022-12-09T17:59:20.837Z,56.23
2022-12-09T18:01:49.046Z,54.33
2022-12-09T18:04:17.120Z,53.37
2022-12-09T18:06:47.004Z,53.97
2022-12-09T18:09:18.455Z,56.07
2022-12-09T18:11:47.175Z,55.30
2022-12-09T18:14:16.540Z,52.27
2022-12-09T18:16:49.198Z,53.90
2022-12-09T18:19:20.253Z,54.10
2022-12-09T18:21:48.551Z,52.13
2022-12-09T18:24:16.708Z,51.13
2022-12-09T18:26:45.617Z,51.73
2022-12-09T18:29:14.330Z,52.80
2022-12-09T18:31:45.594Z,52.07
2022-12-09T18:34:15.397Z,51.97
2022-12-09T18:36:43.581Z,52.63
2022-12-09T18:39:11.750Z,51.90
2022-12-09T18:41:39.812Z,52.00
2022-12-09T18:44:08.789Z,49.63
2022-12-09T18:46:39.490Z,53.67
2022-12-09T18:49:09.258Z,48.93
2022-12-09T18:51:41.629Z,54.90
2022-12-09T18:54:11.697Z,53.73
2022-12-09T18:56:39.880Z,47.93
2022-12-09T18:59:09.274Z,46.93
2022-12-09T19:01:40.686Z,47.80
2022-12-09T19:04:13.122Z,49.50
2022-12-09T19:06:44.958Z,49.97
2022-12-09T19:09:15.511Z,48.77
2022-12-09T19:11:44.847Z,48.80
2022-12-09T19:14:14.644Z,48.47
2022-12-09T19:16:43.864Z,50.33
2022-12-09T19:19:13.482Z,50.33
2022-12-09T19:21:43.739Z,51.27
2022-12-09T19:24:15.440Z,50.13
2022-12-09T19:26:44.282Z,49.73
2022-12-09T19:29:13.816Z,50.07
2022-12-09T19:31:44.356Z,51.10
2022-12-09T19:34:15.515Z,49.80
2022-12-09T19:36:46.291Z,51.30
2022-12-09T19:39:15.728Z,50.67
2022-12-09T19:41:44.994Z,50.23
2022-12-09T19:44:44.396Z,53.47
2022-12-09T19:47:11.062Z,52.87
2022-12-09T19:49:40.933Z,53.73
2022-12-09T19:52:10.375Z,51.20
2022-12-09T19:54:39.139Z,51.23
2022-12-09T19:57:07.413Z,51.30
2022-12-09T19:59:37.631Z,49.30
2022-12-09T20:02:07.252Z,51.13
2022-12-09T20:04:51.523Z,52.73
2022-12-09T20:07:21.671Z,52.20
2022-12-09T20:09:49.994Z,49.87
2022-12-09T20:12:18.132Z,50.03
2022-12-09T20:14:46.361Z,49.17
2022-12-09T20:17:16.569Z,50.80
2022-12-09T20:19:44.774Z,48.90
2022-12-09T20:22:12.999Z,46.70
2022-12-09T20:24:43.258Z,47.60
2022-12-09T20:27:11.415Z,47.40
2022-12-09T20:29:39.628Z,48.50
2022-12-09T20:32:09.421Z,50.80
2022-12-09T20:34:37.601Z,50.60
2022-12-09T20:37:05.953Z,51.97
2022-12-09T20:39:34.165Z,52.33
2022-12-09T20:42:03.817Z,52.43
2022-12-09T20:44:32.635Z,55.47
2022-12-09T20:47:00.872Z,53.80
2022-12-09T20:49:30.226Z,51.83
2022-12-09T20:51:59.022Z,53.47
2022-12-09T20:54:27.373Z,53.73
2022-12-09T20:56:55.656Z,50.57
2022-12-09T20:59:25.316Z,49.50
2022-12-09T21:01:56.849Z,50.30
2022-12-09T21:04:25.138Z,48.87
2022-12-09T21:06:53.784Z,48.77
2022-12-09T21:09:27.060Z,48.17
2022-12-09T21:11:55.401Z,47.17
2022-12-09T21:14:32.480Z,46.90
2022-12-09T21:17:01.105Z,45.77
2022-12-09T21:19:30.465Z,49.67
2022-12-09T21:21:58.618Z,48.70
2022-12-09T21:24:26.758Z,47.47
2022-12-09T21:26:56.500Z,44.87
2022-12-09T21:29:31.524Z,45.63
2022-12-09T21:32:01.530Z,43.13
2022-12-09T21:34:30.234Z,44.87
2022-12-09T21:36:58.540Z,46.50
2022-12-09T21:39:28.073Z,45.17
2022-12-09T21:41:56.452Z,43.93
2022-12-09T21:44:27.072Z,44.37
2022-12-09T21:46:55.571Z,45.40
2022-12-09T21:49:23.968Z,45.50
2022-12-09T21:51:52.311Z,45.70
2022-12-09T21:54:20.520Z,44.23
2022-12-09T21:56:48.778Z,43.63
2022-12-09T21:59:17.048Z,46.60
2022-12-09T22:01:46.628Z,48.23
2022-12-09T22:04:17.188Z,47.83
2022-12-09T22:06:47.071Z,47.90
2022-12-09T22:09:15.601Z,48.27
2022-12-09T22:11:43.746Z,48.03
2022-12-09T22:14:12.329Z,48.43
2022-12-09T22:16:44.094Z,48.33
2022-12-09T22:19:15.761Z,47.60
2022-12-09T22:21:44.277Z,46.00
2022-12-09T22:24:14.327Z,46.33
2022-12-09T22:26:44.208Z,48.13
2022-12-09T22:29:14.240Z,43.67
2022-12-09T22:31:43.495Z,48.73
2022-12-09T22:34:14.921Z,45.30
2022-12-09T22:36:43.376Z,45.60
2022-12-09T22:39:14.382Z,41.57
2022-12-09T22:41:43.832Z,45.40
2022-12-09T22:44:13.571Z,42.83
2022-12-09T22:46:42.705Z,41.40
2022-12-09T22:49:14.406Z,41.60
2022-12-09T22:51:43.070Z,43.90
2022-12-09T22:54:12.199Z,43.97
2022-12-09T22:56:42.647Z,43.90
2022-12-09T22:59:10.996Z,45.10
2022-12-09T23:01:39.259Z,41.83
2022-12-09T23:04:09.124Z,45.57
2022-12-09T23:06:40.709Z,45.37
2022-12-09T23:09:13.975Z,45.77
2022-12-09T23:11:42.255Z,46.50
2022-12-09T23:14:10.714Z,49.17
2022-12-09T23:16:39.033Z,50.47
2022-12-09T23:19:07.538Z,51.50
2022-12-09T23:21:37.337Z,50.77
2022-12-09T23:24:08.850Z,50.60
2022-12-09T23:26:39.298Z,54.80
2022-12-09T23:29:12.729Z,51.83
2022-12-09T23:31:41.437Z,53.63
2022-12-09T23:34:11.853Z,54.43
2022-12-09T23:36:42.105Z,55.57
2022-12-09T23:39:14.217Z,53.40
2022-12-09T23:41:44.215Z,55.50
2022-12-09T23:44:14.685Z,54.37
2022-12-09T23:46:44.381Z,55.00
2022-12-09T23:49:12.525Z,55.03
2022-12-09T23:51:43.795Z,54.17
2022-12-09T23:54:15.567Z,55.47
2022-12-09T23:56:48.140Z,54.20
2022-12-09T23:59:17.356Z,55.30
